Terminal Aerodrome Forecast
Issued by NWS

Home | Current Version | Previous Version | Text Only | Print | Product List | Glossary On
Versions: 1 2 3 4 5 6 7 8 9 10 11 12 13 14 15
000
FTUS46 KSEW 222300
TAFBLI
TAF
KBLI 222329Z 2300/2324 17013KT P6SM VCTS SCT050CB BKN110 OVC250
     FM230300 17008KT P6SM SCT050 BKN110 BKN250
     FM230900 17008KT P6SM FEW025 BKN110 BKN250
     FM231200 17008KT P6SM OVC018
     FM231800 17013KT P6SM BKN025 BKN110 BKN250
     FM232000 19009KT P6SM BKN035 BKN110 BKN250=

USA.gov is the U.S. government's official web portal to all federal, state and local government web resources and services.